Time;durP1;ratioP1;P1;durP2;ratioP2;P2;SDS_P1;SDS_P2;PMS_P1;PMS_P2;Temp;Humidity;BMP_temperature;BMP_pressure;BME280_temperature;BME280_humidity;BME280_pressure;Samples;Min_cycle;Max_cycle;Signal;HPM_P1;HPM_P2
2023/07/10 00:01:41;;;;;;;18.02;16.50;;;;;;;24.10;44.75;100564.88;5012365;28;96784;-72
2023/07/10 00:04:18;;;;;;;17.40;15.80;;;;;;;24.09;44.78;100565.84;5013597;28;97569;-71
2023/07/10 00:06:44;;;;;;;18.13;16.40;;;;;;;24.08;44.75;100562.31;5013405;28;98710;-72
2023/07/10 00:09:09;;;;;;;17.50;16.20;;;;;;;24.07;44.60;100557.09;5013054;28;97654;-72
2023/07/10 00:11:35;;;;;;;17.73;15.93;;;;;;;24.04;44.83;100563.56;5013900;28;96787;-72
2023/07/10 00:14:00;;;;;;;17.13;15.73;;;;;;;23.98;45.01;100561.41;5013572;28;96948;-71
2023/07/10 00:16:27;;;;;;;18.40;16.90;;;;;;;23.98;45.05;100563.25;5013312;28;98728;-71
2023/07/10 00:18:53;;;;;;;18.70;17.23;;;;;;;23.92;45.31;100559.25;5012446;28;98318;-71
2023/07/10 00:21:18;;;;;;;17.65;16.10;;;;;;;23.91;45.30;100568.28;5012655;28;97273;-72
2023/07/10 00:23:44;;;;;;;17.30;16.00;;;;;;;23.84;45.51;100562.59;5013056;28;96856;-72
2023/07/10 00:26:17;;;;;;;17.38;16.08;;;;;;;23.87;45.60;100573.06;5013312;28;99121;-71
2023/07/10 00:28:43;;;;;;;17.88;16.58;;;;;;;23.75;45.66;100558.03;5011130;28;98372;-72
2023/07/10 00:31:09;;;;;;;18.33;16.92;;;;;;;23.77;45.80;100563.28;5009157;28;98704;-72
2023/07/10 00:33:34;;;;;;;18.85;16.98;;;;;;;23.71;45.81;100557.44;5012899;28;96903;-71
2023/07/10 00:36:02;;;;;;;18.73;17.27;;;;;;;23.70;45.76;100557.56;5011708;28;100460;-72
2023/07/10 00:38:31;;;;;;;17.42;15.98;;;;;;;23.67;46.00;100549.75;5013130;28;97059;-72
2023/07/10 00:41:01;;;;;;;18.77;17.23;;;;;;;23.67;45.58;100555.13;5011909;28;96849;-72
2023/07/10 00:43:38;;;;;;;17.23;15.73;;;;;;;23.59;45.35;100550.44;5037729;27;97360;-72
2023/07/10 00:46:18;;;;;;;19.02;17.42;;;;;;;23.57;45.83;100546.19;5011036;28;100335;-72
2023/07/10 00:49:11;;;;;;;18.50;16.77;;;;;;;23.57;45.65;100544.34;5011190;28;98020;-72
2023/07/10 00:51:42;;;;;;;17.35;16.05;;;;;;;23.54;45.76;100547.28;5013091;28;96683;-72
2023/07/10 00:54:13;;;;;;;;;;;;;;;23.46;45.95;100542.56;5011863;28;97892;-72
2023/07/10 00:56:40;;;;;;;18.70;16.85;;;;;;;23.48;46.04;100547.81;5012849;28;98885;-72
2023/07/10 00:59:26;;;;;;;18.40;16.52;;;;;;;23.48;45.92;100551.34;5010600;28;98387;-72
2023/07/10 01:02:06;;;;;;;17.95;16.10;;;;;;;23.51;45.99;100544.88;5022074;28;96744;-72
2023/07/10 01:04:33;;;;;;;17.75;16.15;;;;;;;23.48;46.19;100545.13;5032022;27;96835;-72
2023/07/10 01:06:58;;;;;;;19.98;17.35;;;;;;;23.34;46.69;100545.44;5030851;28;98728;-72
2023/07/10 01:09:24;;;;;;;17.40;16.00;;;;;;;22.82;47.43;100553.25;5014787;28;98710;-72
2023/07/10 01:11:49;;;;;;;18.45;17.05;;;;;;;22.75;47.62;100546.72;5012105;28;97314;-72
2023/07/10 01:14:16;;;;;;;18.40;17.10;;;;;;;22.74;47.76;100527.13;5012310;28;96850;-72
2023/07/10 01:16:42;;;;;;;22.20;16.90;;;;;;;22.86;47.53;100529.75;5017172;28;100138;-72
2023/07/10 01:19:23;;;;;;;18.45;16.95;;;;;;;22.80;47.32;100523.94;5030042;28;98797;-74
2023/07/10 01:21:50;;;;;;;;;;;;;;;22.82;47.45;100527.34;5012378;28;96641;-72
2023/07/10 01:24:16;;;;;;;17.55;15.90;;;;;;;22.93;47.33;100534.50;5011118;28;96936;-72
2023/07/10 01:26:41;;;;;;;18.60;17.05;;;;;;;22.97;47.40;100533.28;5028306;28;100374;-72
2023/07/10 01:29:18;;;;;;;18.42;16.65;;;;;;;22.96;47.38;100528.91;5022142;27;98214;-72
2023/07/10 01:31:45;;;;;;;19.88;17.33;;;;;;;22.98;47.30;100528.78;5010962;28;96886;-72
2023/07/10 01:34:12;;;;;;;19.10;17.15;;;;;;;22.97;47.29;100529.75;5027689;27;97002;-72
2023/07/10 01:36:40;;;;;;;18.73;17.13;;;;;;;22.92;47.05;100529.25;5010393;28;101016;-72
2023/07/10 01:39:14;;;;;;;18.38;16.65;;;;;;;22.87;47.10;100521.63;5011533;28;97076;-72
2023/07/10 01:41:42;;;;;;;17.70;16.40;;;;;;;22.77;47.00;100518.84;5007751;28;96719;-72
2023/07/10 01:44:29;;;;;;;18.90;17.27;;;;;;;22.71;47.13;100530.03;5005815;28;96792;-74
2023/07/10 01:46:56;;;;;;;17.95;16.50;;;;;;;22.76;47.47;100525.16;5004312;28;98717;-74
2023/07/10 01:49:32;;;;;;;19.73;16.60;;;;;;;22.73;47.81;100540.63;5006744;28;97124;-71
2023/07/10 01:51:59;;;;;;;18.08;16.52;;;;;;;22.56;48.19;100531.28;4990634;28;97172;-71
2023/07/10 01:54:24;;;;;;;18.60;16.95;;;;;;;22.58;48.21;100524.00;5010131;28;97382;-74
2023/07/10 01:56:50;;;;;;;17.58;15.95;;;;;;;22.59;47.74;100523.03;5001344;28;98664;-71
2023/07/10 01:59:16;;;;;;;18.33;16.92;;;;;;;22.63;47.66;100524.50;4989641;28;100234;-71
2023/07/10 02:01:41;;;;;;;18.27;16.88;;;;;;;22.56;47.60;100517.91;5011824;28;96792;-71
2023/07/10 02:04:07;;;;;;;18.83;17.17;;;;;;;22.38;47.67;100520.25;5011430;28;96852;-72
2023/07/10 02:06:34;;;;;;;17.48;16.17;;;;;;;22.43;47.52;100512.72;5011801;28;98532;-73
2023/07/10 02:09:00;;;;;;;17.48;15.98;;;;;;;22.49;47.47;100519.41;5011057;28;98775;-71
2023/07/10 02:11:26;;;;;;;18.38;16.80;;;;;;;22.49;47.40;100522.94;4994145;28;97285;-71
2023/07/10 02:13:51;;;;;;;17.83;16.23;;;;;;;22.45;47.43;100502.72;5001246;28;97540;-74
2023/07/10 02:16:17;;;;;;;17.65;16.27;;;;;;;22.51;47.37;100509.41;5008128;28;98841;-72
2023/07/10 02:18:42;;;;;;;18.05;16.35;;;;;;;22.48;47.47;100507.81;5011426;28;98419;-72
2023/07/10 02:21:08;;;;;;;19.27;17.05;;;;;;;22.33;47.43;100498.38;5010057;28;97232;-72
2023/07/10 02:23:37;;;;;;;17.13;15.93;;;;;;;22.34;47.62;100517.00;4998341;28;96973;-73
2023/07/10 02:26:02;;;;;;;18.00;16.42;;;;;;;22.36;47.67;100506.16;5010781;28;98561;-72
2023/07/10 02:28:28;;;;;;;18.05;16.67;;;;;;;22.18;48.47;100518.34;5010894;28;97956;-72
2023/07/10 02:30:54;;;;;;;18.60;17.05;;;;;;;22.20;48.35;100514.56;5009265;28;96823;-73
2023/07/10 02:33:19;;;;;;;18.77;16.98;;;;;;;22.18;48.57;100519.19;5011811;28;96828;-72
2023/07/10 02:35:46;;;;;;;17.98;16.58;;;;;;;22.18;48.27;100521.00;5000352;28;97473;-72
2023/07/10 02:38:12;;;;;;;18.70;16.75;;;;;;;22.18;48.40;100523.69;5021666;27;98255;-72
2023/07/10 02:40:38;;;;;;;17.90;16.40;;;;;;;22.08;48.52;100516.34;5011561;28;96775;-72
2023/07/10 02:43:03;;;;;;;18.80;17.15;;;;;;;22.11;48.70;100515.28;5011607;28;97657;-72
2023/07/10 02:45:29;;;;;;;17.10;15.90;;;;;;;22.14;48.32;100512.34;5005543;28;98570;-72
2023/07/10 02:47:55;;;;;;;17.70;16.40;;;;;;;22.17;48.42;100519.28;5002436;28;97089;-72
2023/07/10 02:50:20;;;;;;;17.65;16.08;;;;;;;22.10;48.50;100516.22;5011369;28;97785;-72
2023/07/10 02:52:46;;;;;;;18.27;16.58;;;;;;;22.11;48.29;100523.28;5011025;28;97184;-72
2023/07/10 02:55:11;;;;;;;18.13;16.67;;;;;;;22.07;48.19;100524.47;5011009;28;98711;-72
2023/07/10 02:57:37;;;;;;;18.23;16.90;;;;;;;22.05;48.01;100523.75;5005953;28;100243;-72
2023/07/10 03:00:04;;;;;;;17.58;16.38;;;;;;;22.00;48.13;100494.72;5004520;28;96839;-72
2023/07/10 03:02:30;;;;;;;18.25;16.80;;;;;;;22.01;47.98;100504.44;5010932;28;96952;-71
2023/07/10 03:04:56;;;;;;;18.38;16.92;;;;;;;21.97;48.03;100494.13;5012730;28;98728;-74
2023/07/10 03:07:21;;;;;;;17.58;16.17;;;;;;;21.98;47.94;100498.50;5014737;28;97287;-72
2023/07/10 03:09:48;;;;;;;17.95;16.38;;;;;;;22.00;47.78;100504.56;5013961;28;96669;-73
2023/07/10 03:12:13;;;;;;;17.90;16.33;;;;;;;21.97;47.58;100499.47;5014330;28;96818;-72
2023/07/10 03:14:39;;;;;;;18.05;16.38;;;;;;;22.01;47.50;100507.09;5008796;28;100523;-72
2023/07/10 03:17:04;;;;;;;17.38;15.98;;;;;;;22.06;47.69;100509.44;5007065;28;98314;-72
2023/07/10 03:19:30;;;;;;;18.02;16.58;;;;;;;21.99;47.70;100511.75;5013479;28;97147;-71
2023/07/10 03:21:56;;;;;;;17.52;15.90;;;;;;;22.06;47.65;100506.75;5008042;28;97475;-73
2023/07/10 03:24:22;;;;;;;18.13;16.63;;;;;;;22.05;47.40;100511.25;5013599;28;98525;-72
2023/07/10 03:26:48;;;;;;;19.35;17.63;;;;;;;22.07;47.41;100497.75;5014388;28;98525;-72
2023/07/10 03:29:14;;;;;;;19.85;18.30;;;;;;;21.99;47.65;100510.88;5013619;28;96764;-72
2023/07/10 03:31:40;;;;;;;18.52;16.85;;;;;;;21.97;47.71;100519.03;5014697;28;96828;-72
2023/07/10 03:34:06;;;;;;;17.35;16.08;;;;;;;;;;5013763;28;98801;-72
2023/07/10 03:36:32;;;;;;;18.35;16.92;;;;;;;21.56;48.91;100514.25;5014046;28;98458;-72
2023/07/10 03:38:58;;;;;;;18.38;16.92;;;;;;;21.65;48.71;100516.19;5012986;28;96596;-73
2023/07/10 03:41:23;;;;;;;18.58;17.13;;;;;;;21.66;48.95;100509.88;5014128;28;96927;-72
2023/07/10 03:43:49;;;;;;;19.48;17.48;;;;;;;21.61;49.00;100496.88;5013630;28;98854;-72
2023/07/10 03:46:15;;;;;;;18.23;16.73;;;;;;;21.42;49.67;100494.78;5013605;28;98382;-72
2023/07/10 03:48:41;;;;;;;17.52;15.80;;;;;;;21.56;49.61;100490.19;5000001;28;97059;-72
2023/07/10 03:51:07;;;;;;;18.38;16.65;;;;;;;21.56;49.38;100485.72;5013873;28;97050;-72
2023/07/10 03:53:32;;;;;;;19.10;17.70;;;;;;;21.54;49.58;100484.13;5011096;28;98709;-72
2023/07/10 03:55:58;;;;;;;18.35;16.58;;;;;;;21.38;49.86;100479.09;5014004;28;98212;-72
2023/07/10 03:58:26;;;;;;;20.80;17.85;;;;;;;21.41;50.05;100485.06;5013441;28;96809;-72
2023/07/10 04:00:51;;;;;;;18.30;17.00;;;;;;;21.48;49.92;100482.78;5013765;28;96904;-72
2023/07/10 04:03:20;;;;;;;19.00;17.48;;;;;;;21.61;49.50;100477.31;5012996;28;98613;-72
2023/07/10 04:05:49;;;;;;;18.67;17.27;;;;;;;21.67;49.25;100483.06;5013819;28;97495;-72
2023/07/10 04:08:15;;;;;;;19.20;17.80;;;;;;;21.56;49.23;100482.19;5028718;28;97248;-72
2023/07/10 04:10:41;;;;;;;20.10;18.40;;;;;;;21.36;49.91;100492.56;5013492;28;96920;-72
2023/07/10 04:13:06;;;;;;;19.30;17.65;;;;;;;21.47;49.68;100489.09;5011268;28;98862;-72
2023/07/10 04:15:32;;;;;;;20.20;18.63;;;;;;;21.44;50.10;100492.84;5012493;28;98268;-72
2023/07/10 04:17:57;;;;;;;20.45;18.50;;;;;;;21.49;49.95;100484.47;5013128;28;96615;-72
2023/07/10 04:20:23;;;;;;;18.98;17.25;;;;;;;21.59;49.87;100479.28;5028413;27;96909;-71
2023/07/10 04:22:48;;;;;;;20.00;18.25;;;;;;;21.74;49.72;100488.75;5012516;28;98814;-72
2023/07/10 04:25:14;;;;;;;20.65;18.92;;;;;;;21.92;49.35;100499.81;5013120;28;98664;-73
2023/07/10 04:27:39;;;;;;;20.45;18.38;;;;;;;22.24;48.70;100493.78;5012601;28;97131;-73
2023/07/10 04:30:06;;;;;;;20.30;18.63;;;;;;;22.38;48.46;100493.53;5028636;27;96903;-72
2023/07/10 04:32:31;;;;;;;20.88;18.60;;;;;;;22.43;48.54;100496.69;5012652;28;98745;-72
2023/07/10 04:34:57;;;;;;;19.10;17.70;;;;;;;22.67;48.09;100488.47;5013050;28;98274;-72
2023/07/10 04:37:22;;;;;;;19.20;17.70;;;;;;;22.65;48.25;100489.56;5013178;28;96763;-72
2023/07/10 04:39:48;;;;;;;19.50;17.70;;;;;;;22.54;48.30;100483.28;5012803;28;96861;-72
2023/07/10 04:42:13;;;;;;;20.85;18.17;;;;;;;22.83;47.84;100483.56;5012712;28;98595;-73
2023/07/10 04:44:39;;;;;;;19.77;18.15;;;;;;;23.04;47.67;100472.06;5012695;28;98438;-72
2023/07/10 04:47:05;;;;;;;18.40;16.48;;;;;;;23.26;47.15;100482.66;5012943;28;96691;-72
2023/07/10 04:49:30;;;;;;;20.20;18.42;;;;;;;23.31;46.97;100478.75;5012611;28;96814;-72
2023/07/10 04:52:14;;;;;;;20.45;18.67;;;;;;;23.54;46.51;100484.81;5012277;28;98654;-72
2023/07/10 04:54:40;;;;;;;20.80;18.75;;;;;;;23.38;47.10;100478.09;5012445;28;98508;-72
2023/07/10 04:57:06;;;;;;;19.40;17.60;;;;;;;23.58;46.64;100484.41;5012465;28;96927;-72
2023/07/10 04:59:32;;;;;;;19.98;17.95;;;;;;;23.91;45.99;100491.41;5023215;28;96891;-72
2023/07/10 05:01:57;;;;;;;21.48;19.05;;;;;;;24.19;45.49;100491.66;5014847;28;98712;-72
2023/07/10 05:04:23;;;;;;;21.10;19.05;;;;;;;24.29;45.12;100484.50;5011970;28;98382;-72
2023/07/10 05:06:51;;;;;;;21.88;19.98;;;;;;;24.03;45.12;100470.72;5013026;28;97253;-72
2023/07/10 05:09:17;;;;;;;23.92;20.42;;;;;;;24.73;44.50;100485.03;5017831;27;97266;-72
2023/07/10 05:11:42;;;;;;;23.08;19.38;;;;;;;25.26;43.42;100481.94;5026795;27;98670;-73
2023/07/10 05:14:08;;;;;;;20.88;18.95;;;;;;;24.60;44.64;100477.22;5020295;28;98296;-72
2023/07/10 05:16:33;;;;;;;22.20;20.35;;;;;;;24.36;45.28;100477.59;5012208;28;97677;-72
2023/07/10 05:18:59;;;;;;;25.23;20.33;;;;;;;24.19;45.61;100480.91;5011417;28;96896;-72
2023/07/10 05:21:25;;;;;;;21.90;19.63;;;;;;;24.32;45.15;100488.75;5011633;28;98783;-72
2023/07/10 05:23:50;;;;;;;20.77;19.13;;;;;;;23.95;45.92;100462.50;5011886;28;98497;-72
2023/07/10 05:26:16;;;;;;;21.20;19.20;;;;;;;23.82;46.19;100478.78;5012132;28;98006;-73
2023/07/10 05:28:42;;;;;;;22.77;20.33;;;;;;;23.61;46.96;100477.94;4999783;28;97399;-73
2023/07/10 05:31:10;;;;;;;21.40;19.67;;;;;;;23.86;46.65;100482.06;5002639;28;98569;-73
2023/07/10 05:33:36;;;;;;;21.90;19.70;;;;;;;23.73;47.02;100491.16;5008444;28;98343;-73
2023/07/10 05:36:04;;;;;;;22.00;20.20;;;;;;;23.92;46.61;100490.41;5012339;28;96782;-73
2023/07/10 05:38:32;;;;;;;23.65;21.10;;;;;;;23.84;47.27;100494.75;5019181;28;96767;-73
2023/07/10 05:40:57;;;;;;;21.58;19.42;;;;;;;24.11;46.69;100489.63;5011595;28;98719;-73
2023/07/10 05:43:23;;;;;;;21.20;19.23;;;;;;;24.07;46.75;100485.53;5006049;28;98315;-73
2023/07/10 05:45:49;;;;;;;22.65;19.17;;;;;;;24.71;45.46;100488.84;4995081;28;96781;-73
2023/07/10 05:48:15;;;;;;;21.13;19.00;;;;;;;25.03;44.93;100488.56;5008868;28;96850;-73
2023/07/10 05:50:45;;;;;;;21.88;19.75;;;;;;;24.83;45.18;100485.88;5004061;28;98567;-73
2023/07/10 05:53:11;;;;;;;23.05;20.77;;;;;;;24.83;45.64;100476.97;5005829;28;98557;-73
2023/07/10 05:55:37;;;;;;;22.45;20.08;;;;;;;24.83;45.13;100459.03;4998749;28;97537;-73
2023/07/10 05:58:02;;;;;;;21.65;20.00;;;;;;;25.15;45.04;100467.81;5012092;28;97017;-73
2023/07/10 06:00:28;;;;;;;24.00;19.85;;;;;;;25.47;44.74;100465.66;5010927;28;98685;-73
2023/07/10 06:02:54;;;;;;;22.80;20.63;;;;;;;24.29;46.67;100460.34;5010626;28;97318;-73
2023/07/10 06:05:20;;;;;;;23.15;21.27;;;;;;;23.60;47.93;100455.66;5011618;28;97104;-73
2023/07/10 06:07:45;;;;;;;22.20;20.23;;;;;;;23.61;48.24;100454.69;5010990;28;96962;-73
2023/07/10 06:10:11;;;;;;;22.35;20.27;;;;;;;23.94;47.47;100452.75;5011063;28;98944;-73
2023/07/10 06:12:36;;;;;;;25.88;23.60;;;;;;;23.82;47.64;100451.97;5003143;28;98319;-73
2023/07/10 06:15:02;;;;;;;21.98;20.38;;;;;;;23.35;48.91;100448.03;5012140;28;97473;-73
2023/07/10 06:17:27;;;;;;;23.23;20.85;;;;;;;23.18;49.81;100449.47;5003936;28;96884;-73
2023/07/10 06:19:53;;;;;;;22.80;20.58;;;;;;;23.07;49.97;100449.53;5008844;28;98709;-73
2023/07/10 06:22:18;;;;;;;23.67;21.42;;;;;;;23.03;50.51;100446.25;5006230;28;98729;-73
2023/07/10 06:24:44;;;;;;;24.65;21.55;;;;;;;23.18;50.23;100441.44;5002057;28;96775;-73
2023/07/10 06:27:10;;;;;;;22.63;20.27;;;;;;;23.12;50.60;100452.66;4993875;28;96904;-73
2023/07/10 06:29:36;;;;;;;21.73;19.92;;;;;;;23.17;50.45;100459.34;4999044;28;98688;-73
2023/07/10 06:32:03;;;;;;;25.33;21.77;;;;;;;23.34;49.93;100471.31;5005964;28;99117;-73
2023/07/10 06:34:29;;;;;;;23.30;20.75;;;;;;;23.02;50.69;100484.72;5009463;28;96751;-73
2023/07/10 06:36:54;;;;;;;23.02;21.02;;;;;;;23.18;50.65;100478.91;5017068;28;96903;-73
2023/07/10 06:39:20;;;;;;;24.08;21.27;;;;;;;22.89;51.53;100476.81;5011496;28;98623;-73
2023/07/10 06:41:46;;;;;;;24.60;22.20;;;;;;;22.88;51.84;100474.28;5014706;28;98267;-73
2023/07/10 06:44:12;;;;;;;23.38;21.20;;;;;;;22.91;51.74;100466.00;5013350;28;96773;-73
2023/07/10 06:46:38;;;;;;;23.25;20.85;;;;;;;22.91;51.80;100472.19;5015271;28;96828;-73
2023/07/10 06:49:03;;;;;;;23.95;21.30;;;;;;;23.13;51.52;100467.78;5014281;28;98683;-73
2023/07/10 06:51:29;;;;;;;25.70;23.23;;;;;;;23.37;50.85;100468.34;5013843;28;98341;-74
2023/07/10 06:53:55;;;;;;;21.98;19.88;;;;;;;23.66;50.31;100473.88;5013256;28;96748;-72
2023/07/10 06:56:20;;;;;;;23.38;20.27;;;;;;;23.80;50.36;100483.44;5001279;28;96928;-73
2023/07/10 06:58:46;;;;;;;22.73;20.90;;;;;;;24.04;49.78;100488.50;5012978;28;98758;-73
2023/07/10 07:01:12;;;;;;;23.23;20.70;;;;;;;24.67;48.13;100490.97;5013937;28;98312;-73
2023/07/10 07:03:40;;;;;;;22.27;20.20;;;;;;;24.93;47.68;100502.00;5015051;28;97622;-73
2023/07/10 07:06:07;;;;;;;22.13;20.35;;;;;;;25.17;47.40;100503.47;5014843;28;96796;-73
2023/07/10 07:08:33;;;;;;;23.20;21.40;;;;;;;25.29;46.96;100481.66;5029622;28;98707;-73
2023/07/10 07:10:58;;;;;;;22.73;20.52;;;;;;;25.09;47.36;100485.31;5013511;28;98547;-73
2023/07/10 07:13:24;;;;;;;24.40;22.20;;;;;;;25.28;47.44;100481.81;5017756;28;96737;-75
2023/07/10 07:15:51;;;;;;;24.15;22.02;;;;;;;26.13;45.85;100471.97;5010187;27;98016;-74
2023/07/10 07:18:16;;;;;;;22.63;20.92;;;;;;;27.25;43.59;100474.31;5012945;28;98659;-73
2023/07/10 07:20:42;;;;;;;23.20;21.13;;;;;;;32.27;34.80;100459.31;5019190;28;98365;-74
2023/07/10 07:23:07;;;;;;;24.67;22.10;;;;;;;30.18;38.38;100456.19;5015091;28;96812;-74
2023/07/10 07:25:33;;;;;;;23.55;21.63;;;;;;;29.03;39.93;100448.31;5009949;28;96822;-74
2023/07/10 07:28:03;;;;;;;23.98;21.92;;;;;;;28.57;40.60;100450.59;5018781;27;98562;-74
2023/07/10 07:30:29;;;;;;;23.70;22.00;;;;;;;28.33;41.11;100464.88;5016619;28;100001;-73
2023/07/10 07:32:56;;;;;;;22.38;20.70;;;;;;;27.51;42.58;100460.88;5029553;27;96773;-73
2023/07/10 07:35:22;;;;;;;22.92;21.10;;;;;;;27.20;43.48;100447.88;5014398;28;96881;-73
2023/07/10 07:37:48;;;;;;;23.15;21.50;;;;;;;26.76;44.26;100446.94;5014083;28;98621;-73
2023/07/10 07:40:16;;;;;;;23.15;21.33;;;;;;;27.24;43.43;100454.63;5029356;27;98271;-74
2023/07/10 07:42:43;;;;;;;24.50;22.10;;;;;;;27.52;42.52;100447.25;5014000;28;96731;-73
2023/07/10 07:45:09;;;;;;;22.75;20.75;;;;;;;28.25;41.59;100447.81;5014149;28;96890;-73
2023/07/10 07:47:34;;;;;;;23.88;22.05;;;;;;;30.94;36.56;100445.59;5029307;27;98747;-73
2023/07/10 07:50:00;;;;;;;23.60;21.73;;;;;;;31.38;35.67;100440.31;5013586;28;97372;-73
2023/07/10 07:52:26;;;;;;;22.88;20.67;;;;;;;30.16;37.93;100445.50;5014066;28;96854;-73
2023/07/10 07:54:51;;;;;;;23.05;21.20;;;;;;;29.58;39.26;100435.88;5013892;28;97071;-73
2023/07/10 07:57:17;;;;;;;23.58;20.98;;;;;;;28.55;40.70;100419.38;5009594;28;98687;-75
2023/07/10 07:59:43;;;;;;;23.48;21.40;;;;;;;28.02;41.37;100439.44;5011975;28;97686;-73
2023/07/10 08:02:09;;;;;;;23.45;21.52;;;;;;;27.64;41.92;100442.44;5011365;28;97214;-73
2023/07/10 08:04:35;;;;;;;23.85;21.80;;;;;;;27.41;42.51;100443.97;5010937;28;96813;-75
2023/07/10 08:07:01;;;;;;;22.50;20.35;;;;;;;27.56;42.17;100446.94;5009978;28;98756;-73
2023/07/10 08:09:26;;;;;;;22.63;20.48;;;;;;;27.51;42.72;100444.69;5010794;28;98515;-74
2023/07/10 08:11:52;;;;;;;22.88;21.15;;;;;;;27.65;42.60;100443.28;5011152;28;97784;-73
2023/07/10 08:14:17;;;;;;;21.58;19.98;;;;;;;27.70;42.05;100443.66;5011703;28;96879;-73
2023/07/10 08:16:43;;;;;;;22.73;20.38;;;;;;;26.91;42.27;100426.56;5010611;28;98835;-74
2023/07/10 08:19:08;;;;;;;22.40;20.33;;;;;;;27.24;41.63;100419.59;4998492;28;98299;-74
2023/07/10 08:21:34;;;;;;;23.40;21.38;;;;;;;27.77;40.60;100415.00;5009447;28;97331;-74
2023/07/10 08:23:59;;;;;;;22.58;20.50;;;;;;;29.30;37.93;100420.09;5013862;28;96891;-72
2023/07/10 08:26:25;;;;;;;21.02;19.52;;;;;;;30.34;36.19;100418.22;5011873;28;98494;-74
2023/07/10 08:28:50;;;;;;;22.05;20.55;;;;;;;32.31;32.13;100417.16;5007687;28;98421;-74
2023/07/10 08:31:17;;;;;;;21.55;19.95;;;;;;;29.73;35.74;100417.97;5010517;28;97270;-74
2023/07/10 08:33:42;;;;;;;21.38;19.88;;;;;;;29.91;35.96;100436.69;5010351;28;96865;-74
2023/07/10 08:36:08;;;;;;;22.02;20.33;;;;;;;30.65;34.90;100436.28;5011942;28;98728;-73
2023/07/10 08:38:35;;;;;;;22.15;20.42;;;;;;;31.70;33.45;100432.84;5011366;28;98331;-73
2023/07/10 08:41:04;;;;;;;22.23;19.95;;;;;;;30.61;34.18;100438.53;5012481;28;96808;-74
2023/07/10 08:43:39;;;;;;;21.83;20.13;;;;;;;31.97;33.24;100440.38;5027695;28;96923;-83
2023/07/10 08:46:11;;;;;;;20.73;19.33;;;;;;;31.78;33.57;100449.03;5025853;28;99007;-79
2023/07/10 08:48:39;;;;;;;21.63;19.67;;;;;;;30.45;34.98;100450.28;5010978;28;98751;-79
2023/07/10 08:51:20;;;;;;;21.60;19.88;;;;;;;29.64;35.78;100450.63;5028144;28;97184;-84
2023/07/10 08:53:55;;;;;;;22.52;20.75;;;;;;;29.19;36.66;100465.53;5018631;28;96843;-88
2023/07/10 08:56:26;;;;;;;21.10;19.70;;;;;;;28.77;37.65;100456.53;5018710;28;98660;-85
2023/07/10 08:58:55;;;;;;;21.70;19.63;;;;;;;28.07;38.55;100469.47;5011534;28;98232;-85
2023/07/10 09:01:42;;;;;;;22.08;20.25;;;;;;;27.86;39.25;100469.88;5013031;28;96724;-85
2023/07/10 09:04:12;;;;;;;21.38;19.75;;;;;;;28.14;38.79;100467.81;5026424;28;96874;-85
2023/07/10 09:06:40;;;;;;;;;;;;;;;28.11;39.30;100485.19;5007488;28;98928;-86
2023/07/10 09:09:13;;;;;;;21.73;20.05;;;;;;;28.14;39.28;100487.53;5007324;28;98395;-86
2023/07/10 09:11:39;;;;;;;21.83;20.10;;;;;;;28.06;39.58;100516.34;5012754;28;97051;-86
2023/07/10 12:50:12;;;;;;;21.02;19.42;;;;;;;27.80;45.17;100317.63;4822438;29;96733;-75
2023/07/10 12:52:39;;;;;;;20.88;19.27;;;;;;;27.75;45.06;100284.88;4821937;29;97240;-75
2023/07/10 12:55:13;;;;;;;21.33;19.33;;;;;;;27.64;46.32;100261.78;4816073;29;98842;-74
2023/07/10 12:57:38;;;;;;;21.27;19.63;;;;;;;27.67;47.01;100247.97;4816502;29;98341;-74
2023/07/10 13:00:08;;;;;;;21.88;20.13;;;;;;;27.77;47.68;100245.97;4829115;29;96812;-75
2023/07/10 13:02:44;;;;;;;22.35;20.15;;;;;;;27.74;47.70;100250.84;4836896;29;98488;-75
2023/07/10 13:05:22;;;;;;;22.67;20.83;;;;;;;27.66;47.45;100259.75;4821431;29;98751;-75
2023/07/10 13:07:54;;;;;;;22.20;20.42;;;;;;;27.69;47.03;100267.56;4815691;29;98840;-75
2023/07/10 13:13:42;;;;;;;21.30;19.55;;;;;;;28.10;45.36;100254.16;4823813;29;97310;-81
2023/07/10 13:16:58;;;;;;;20.92;19.30;;;;;;;28.50;44.48;100265.97;4821768;29;99039;-85
2023/07/10 13:27:39;;;;;;;20.58;19.08;;;;;;;29.00;42.83;100262.22;4817719;29;97425;-86
2023/07/10 13:30:26;;;;;;;21.60;20.00;;;;;;;28.84;41.15;100256.84;4815781;29;97821;-88
2023/07/10 13:35:34;;;;;;;20.45;18.90;;;;;;;28.96;40.84;100233.00;5028967;23;97598;-84
2023/07/10 13:37:59;;;;;;;20.00;18.60;;;;;;;28.58;40.41;100241.69;4871211;28;96769;-82
2023/07/10 13:40:25;;;;;;;20.33;18.83;;;;;;;28.74;40.87;100261.56;4871959;28;99100;-83
2023/07/10 13:42:50;;;;;;;20.48;18.98;;;;;;;28.64;40.43;100261.75;4873212;28;98487;-85
2023/07/10 13:45:16;;;;;;;20.38;18.83;;;;;;;28.58;40.24;100260.59;4869213;28;97336;-83
2023/07/10 13:47:42;;;;;;;21.33;19.42;;;;;;;28.70;40.21;100271.03;4851621;28;96984;-83
2023/07/10 13:50:13;;;;;;;20.20;18.75;;;;;;;28.47;40.65;100282.53;4870412;28;98979;-84
2023/07/10 13:52:39;;;;;;;19.42;18.05;;;;;;;28.62;40.37;100278.16;4868667;28;98946;-81
2023/07/10 13:55:05;;;;;;;20.63;18.73;;;;;;;28.40;40.77;100287.72;4862639;28;97246;-80
2023/07/10 13:57:31;;;;;;;20.63;19.02;;;;;;;28.05;41.53;100282.66;4869221;28;98136;-81
2023/07/10 14:00:00;;;;;;;20.33;18.92;;;;;;;27.93;41.47;100284.81;4870931;28;98803;-79
2023/07/10 14:02:34;;;;;;;19.67;18.40;;;;;;;28.08;41.78;100309.28;4866731;28;98398;-81
2023/07/10 14:05:01;;;;;;;19.95;18.55;;;;;;;28.09;42.01;100321.75;4855327;28;96831;-81
2023/07/10 14:07:29;;;;;;;20.38;18.88;;;;;;;27.95;43.99;100301.66;4871787;28;97019;-80
2023/07/10 14:09:58;;;;;;;20.73;19.13;;;;;;;27.78;44.63;100306.16;4872101;28;98971;-80
2023/07/10 14:12:25;;;;;;;20.67;18.80;;;;;;;27.85;45.75;100309.06;4870833;28;98581;-80
2023/07/10 14:14:50;;;;;;;22.40;20.25;;;;;;;28.14;47.44;100312.16;4869638;28;97274;-80
2023/07/10 14:17:21;;;;;;;21.50;19.70;;;;;;;28.39;47.44;100322.97;4870759;28;96893;-81
2023/07/10 14:19:47;;;;;;;;;;;;;;;28.26;48.69;100323.47;4830738;29;99131;-89
2023/07/10 14:22:12;;;;;;;22.13;20.23;;;;;;;28.07;50.64;100318.38;4855692;28;98944;-80
2023/07/10 14:24:38;;;;;;;21.67;19.98;;;;;;;27.89;52.07;100313.13;4867104;28;97005;-82
2023/07/10 14:27:24;;;;;;;21.30;19.65;;;;;;;27.80;51.40;100312.25;4863773;28;96944;-77
2023/07/10 14:29:51;;;;;;;21.73;20.20;;;;;;;27.74;51.29;100305.63;4863136;28;98722;-74
2023/07/10 14:32:21;;;;;;;21.38;19.67;;;;;;;27.66;51.87;100297.50;4854693;28;98231;-78
2023/07/10 14:34:47;;;;;;;21.70;19.98;;;;;;;27.61;51.25;100297.16;4851570;28;98061;-77
2023/07/10 14:37:15;;;;;;;20.55;19.13;;;;;;;27.48;50.08;100265.25;4850970;29;96940;-78
2023/07/10 14:39:40;;;;;;;22.05;20.13;;;;;;;27.31;50.92;100256.31;4853406;28;98924;-81
2023/07/10 14:42:20;;;;;;;21.48;19.77;;;;;;;27.57;50.44;100274.22;4853233;28;97179;-79
2023/07/10 14:44:46;;;;;;;21.45;19.75;;;;;;;28.06;49.20;100281.63;4852301;28;97269;-76
2023/07/10 14:47:32;;;;;;;20.90;18.98;;;;;;;28.61;47.21;100278.31;4853653;28;97146;-82
2023/07/10 14:49:59;;;;;;;21.67;19.50;;;;;;;28.65;46.40;100274.25;4835699;29;100724;-84
2023/07/10 14:52:29;;;;;;;21.58;20.08;;;;;;;28.49;47.86;100285.06;4852198;28;98769;-84
2023/07/10 14:54:56;;;;;;;20.92;19.20;;;;;;;28.28;46.56;100259.41;4846100;28;96872;-79
2023/07/10 14:57:40;;;;;;;21.35;19.63;;;;;;;28.32;48.40;100233.75;4857960;28;97441;-79
2023/07/10 15:00:24;;;;;;;22.30;20.60;;;;;;;28.12;47.26;100203.56;4852835;28;98657;-78
2023/07/10 15:02:51;;;;;;;21.83;20.10;;;;;;;27.95;48.19;100210.78;4847295;28;98296;-77
2023/07/10 15:05:17;;;;;;;20.75;19.23;;;;;;;27.82;48.24;100221.25;4838294;28;97177;-77